createdAt,value
2018-05-24T00:01:14.139Z,99287.89
2018-05-24T00:03:42.473Z,99292.66
2018-05-24T00:06:11.982Z,99292.93
2018-05-24T00:08:40.301Z,99283.60
2018-05-24T00:11:09.050Z,99286.36
2018-05-24T00:13:37.415Z,99282.36
2018-05-24T00:16:05.784Z,99281.75
2018-05-24T00:18:34.211Z,99279.17
2018-05-24T00:21:02.553Z,99274.97
2018-05-24T00:23:31.475Z,99275.59
2018-05-24T00:26:00.763Z,99278.81
2018-05-24T00:28:29.636Z,99272.14
2018-05-24T00:30:57.993Z,99274.83
2018-05-24T00:33:27.035Z,99270.82
2018-05-24T00:35:55.372Z,99265.88
2018-05-24T00:38:24.122Z,99266.89
2018-05-24T00:40:52.489Z,99257.70
2018-05-24T00:43:21.566Z,99246.98
2018-05-24T00:45:49.925Z,99245.89
2018-05-24T00:48:18.257Z,99242.07
2018-05-24T00:50:46.605Z,99244.19
2018-05-24T00:53:14.981Z,99237.66
2018-05-24T00:55:43.418Z,99246.32
2018-05-24T00:58:12.178Z,99236.48
2018-05-24T01:00:40.932Z,99238.97
2018-05-24T01:03:10.176Z,99250.02
2018-05-24T01:05:38.524Z,99250.52
2018-05-24T01:08:06.866Z,99248.52
2018-05-24T01:10:36.149Z,99241.38
2018-05-24T01:13:05.366Z,99239.34
2018-05-24T01:15:34.563Z,99244.79
2018-05-24T01:18:04.002Z,99244.95
2018-05-24T01:20:32.714Z,99253.92
2018-05-24T01:23:01.043Z,99253.28
2018-05-24T01:25:30.122Z,99244.56
2018-05-24T01:27:58.465Z,99244.60
2018-05-24T01:30:26.832Z,99260.37
2018-05-24T01:32:55.204Z,99256.36
2018-05-24T01:35:23.554Z,99263.67
2018-05-24T01:37:52.766Z,99268.03
2018-05-24T01:40:21.419Z,99265.58
2018-05-24T01:42:49.782Z,99267.66
2018-05-24T01:45:18.180Z,99266.55
2018-05-24T01:47:46.986Z,99271.06
2018-05-24T01:50:16.010Z,99271.11
2018-05-24T01:52:44.343Z,99271.22
2018-05-24T01:55:12.734Z,99273.30
2018-05-24T01:57:41.074Z,99274.47
2018-05-24T02:00:09.427Z,99270.67
2018-05-24T02:02:38.312Z,99286.71
2018-05-24T02:05:08.478Z,99292.68
2018-05-24T02:07:36.813Z,99291.66
2018-05-24T02:10:05.181Z,99298.94
2018-05-24T02:12:33.506Z,99300.28
2018-05-24T02:15:01.896Z,99295.48
2018-05-24T02:17:31.633Z,99303.31
2018-05-24T02:19:59.991Z,99308.97
2018-05-24T02:22:28.382Z,99306.53
2018-05-24T02:24:57.738Z,99314.32
2018-05-24T02:27:26.076Z,99320.23
2018-05-24T02:29:54.457Z,99326.48
2018-05-24T02:32:22.791Z,99336.36
2018-05-24T02:34:51.177Z,99335.56
2018-05-24T02:37:19.977Z,99331.28
2018-05-24T02:39:48.381Z,99325.14
2018-05-24T02:42:17.363Z,99326.77
2018-05-24T02:44:46.952Z,99331.23
2018-05-24T02:47:15.309Z,99336.87
2018-05-24T02:49:43.689Z,99350.31
2018-05-24T02:52:12.186Z,99347.47
2018-05-24T02:54:40.526Z,99348.13
2018-05-24T02:57:08.965Z,99345.37
2018-05-24T02:59:37.357Z,99339.58
2018-05-24T03:02:05.722Z,99338.30
2018-05-24T03:04:34.185Z,99333.17
2018-05-24T03:07:02.546Z,99333.23
2018-05-24T03:09:30.871Z,99328.02
2018-05-24T03:11:59.216Z,99334.70
2018-05-24T03:14:27.624Z,99332.38
2018-05-24T03:16:56.165Z,99331.96
2018-05-24T03:19:25.522Z,99336.22
2018-05-24T03:21:53.886Z,99340.41
2018-05-24T03:24:22.246Z,99337.73
2018-05-24T03:26:51.346Z,99339.95
2018-05-24T03:29:20.581Z,99341.86
2018-05-24T03:31:48.958Z,99345.87
2018-05-24T03:34:18.007Z,99344.68
2018-05-24T03:36:46.700Z,99339.25
2018-05-24T03:39:15.029Z,99337.30
2018-05-24T03:41:43.388Z,99335.25
2018-05-24T03:44:11.725Z,99335.21
2018-05-24T03:46:41.020Z,99324.95
2018-05-24T03:49:09.816Z,99324.55
2018-05-24T03:51:39.551Z,99319.51
2018-05-24T03:54:07.882Z,99320.14
2018-05-24T03:56:36.291Z,99310.21
2018-05-24T04:02:25.746Z,99307.13
2018-05-24T04:04:55.993Z,99299.46
2018-05-24T04:07:24.681Z,99296.69
2018-05-24T04:09:53.017Z,99290.47
2018-05-24T04:12:21.394Z,99286.52
2018-05-24T04:14:50.069Z,99294.89
2018-05-24T04:17:18.462Z,99290.64
2018-05-24T04:19:47.661Z,99291.28
2018-05-24T04:22:16.027Z,99285.69
2018-05-24T04:24:44.376Z,99281.56
2018-05-24T04:27:13.343Z,99277.45
2018-05-24T04:29:41.708Z,99284.59
2018-05-24T04:32:10.134Z,99275.30
2018-05-24T04:34:39.395Z,99273.00
2018-05-24T04:37:08.239Z,99281.62
2018-05-24T04:39:36.581Z,99278.17
2018-05-24T04:42:04.944Z,99276.47
2018-05-24T04:44:33.275Z,99276.02
2018-05-24T04:47:01.646Z,99280.55
2018-05-24T04:49:30.601Z,99289.61
2018-05-24T04:51:58.972Z,99290.42
2018-05-24T04:54:28.145Z,99300.61
2018-05-24T04:56:56.829Z,99304.43
2018-05-24T04:59:25.167Z,99305.70
2018-05-24T05:01:53.770Z,99308.08
2018-05-24T05:04:22.180Z,99305.90
2018-05-24T05:06:50.589Z,99307.97
2018-05-24T05:09:19.278Z,99305.59
2018-05-24T05:11:48.004Z,99308.92
2018-05-24T05:14:16.337Z,99302.66
2018-05-24T05:16:44.713Z,99299.11
2018-05-24T05:19:13.094Z,99295.88
2018-05-24T05:21:43.425Z,99293.72
2018-05-24T05:24:12.016Z,99302.70
2018-05-24T05:26:41.285Z,99300.75
2018-05-24T05:29:10.252Z,99297.02
2018-05-24T05:31:38.655Z,99299.44
2018-05-24T05:34:07.241Z,99293.12
2018-05-24T05:36:35.656Z,99304.91
2018-05-24T05:39:03.985Z,99301.58
2018-05-24T05:41:32.360Z,99303.48
2018-05-24T05:44:01.349Z,99304.49
2018-05-24T05:46:30.489Z,99312.38
2018-05-24T05:48:58.830Z,99318.78
2018-05-24T05:51:28.043Z,99318.51
2018-05-24T05:53:56.380Z,99321.64
2018-05-24T05:56:24.973Z,99322.72
2018-05-24T05:58:54.813Z,99325.86
2018-05-24T06:01:23.229Z,99328.48
2018-05-24T06:03:52.882Z,99321.27
2018-05-24T06:06:22.135Z,99320.47
2018-05-24T06:08:50.469Z,99317.22
2018-05-24T06:11:20.169Z,99313.05
2018-05-24T06:13:48.869Z,99306.02
2018-05-24T06:16:17.208Z,99312.98
2018-05-24T06:18:46.048Z,99309.90
2018-05-24T06:21:15.308Z,99308.05
2018-05-24T06:23:44.021Z,99308.13
2018-05-24T06:26:13.943Z,99315.41
2018-05-24T06:28:42.280Z,99314.22
2018-05-24T06:31:10.686Z,99305.63
2018-05-24T06:33:39.252Z,99309.48
2018-05-24T06:36:07.618Z,99320.49
2018-05-24T06:38:36.002Z,99323.36
2018-05-24T06:41:04.373Z,99329.73
2018-05-24T06:43:33.520Z,99330.86
2018-05-24T06:46:02.816Z,99332.86
2018-05-24T06:48:31.206Z,99335.91
2018-05-24T06:51:00.279Z,99330.63
2018-05-24T06:53:29.395Z,99327.39
2018-05-24T06:55:59.188Z,99333.87
2018-05-24T06:58:28.095Z,99333.19
2018-05-24T07:00:57.625Z,99337.06
2018-05-24T07:03:26.186Z,99336.83
2018-05-24T07:05:55.962Z,99337.45
2018-05-24T07:08:25.073Z,99330.77
2018-05-24T07:10:53.412Z,99333.23
2018-05-24T07:13:22.710Z,99326.52
2018-05-24T07:15:51.049Z,99333.61
2018-05-24T07:18:20.397Z,99330.30
2018-05-24T07:20:50.201Z,99333.30
2018-05-24T07:23:18.846Z,99333.23
2018-05-24T07:25:47.476Z,99332.66
2018-05-24T07:28:16.648Z,99326.92
2018-05-24T07:30:45.322Z,99334.58
2018-05-24T07:33:14.401Z,99338.61
2018-05-24T07:35:43.890Z,99331.31
2018-05-24T07:38:12.257Z,99332.39
2018-05-24T07:40:40.729Z,99320.75
2018-05-24T07:43:09.141Z,99331.61
2018-05-24T07:45:39.582Z,99333.03
2018-05-24T07:48:09.282Z,99335.07
2018-05-24T07:50:37.967Z,99335.72
2018-05-24T07:53:06.731Z,99339.95
2018-05-24T07:55:35.108Z,99340.58
2018-05-24T07:58:03.808Z,99336.91
2018-05-24T08:00:32.162Z,99341.50
2018-05-24T08:03:00.647Z,99339.81
2018-05-24T08:05:29.036Z,99337.55
2018-05-24T08:07:57.437Z,99341.94
2018-05-24T08:10:26.169Z,99351.58
2018-05-24T08:12:55.181Z,99351.64
2018-05-24T08:15:24.231Z,99349.83
2018-05-24T08:17:53.716Z,99341.64
2018-05-24T08:20:22.115Z,99346.66
2018-05-24T08:22:50.482Z,99336.36
2018-05-24T08:25:18.914Z,99339.78
2018-05-24T08:27:47.297Z,99341.70
2018-05-24T08:30:16.196Z,99341.28
2018-05-24T08:32:45.371Z,99335.96
2018-05-24T08:35:14.298Z,99342.39
2018-05-24T08:37:42.996Z,99340.47
2018-05-24T08:40:11.342Z,99339.16
2018-05-24T08:42:40.658Z,99334.45
2018-05-24T08:45:10.282Z,99332.53
2018-05-24T08:47:39.590Z,99331.34
2018-05-24T08:50:08.318Z,99333.02
2018-05-24T08:52:37.566Z,99336.70
2018-05-24T08:55:06.755Z,99336.89
2018-05-24T08:57:36.549Z,99329.59
2018-05-24T09:00:05.833Z,99330.97
2018-05-24T09:02:34.469Z,99331.11
2018-05-24T09:05:02.876Z,99326.03
2018-05-24T09:07:31.314Z,99325.96
2018-05-24T09:10:00.628Z,99325.34
2018-05-24T09:12:29.005Z,99331.48
2018-05-24T09:14:57.625Z,99331.25
2018-05-24T09:17:26.469Z,99334.17
2018-05-24T09:19:54.801Z,99328.61
2018-05-24T09:22:23.437Z,99330.96
2018-05-24T09:24:52.932Z,99334.60
2018-05-24T09:27:22.157Z,99332.97
2018-05-24T09:29:51.388Z,99336.28
2018-05-24T09:32:19.754Z,99329.93
2018-05-24T09:34:48.614Z,99340.70
2018-05-24T09:37:17.034Z,99341.40
2018-05-24T09:39:45.462Z,99340.10
2018-05-24T09:42:13.876Z,99342.82
2018-05-24T09:44:42.478Z,99341.04
2018-05-24T09:47:11.529Z,99341.23
2018-05-24T09:49:40.759Z,99339.88
2018-05-24T09:52:09.119Z,99336.63
2018-05-24T09:54:38.373Z,99337.72
2018-05-24T09:57:07.375Z,99332.89
2018-05-24T09:59:36.110Z,99334.35
2018-05-24T10:02:04.797Z,99333.16
2018-05-24T10:04:33.228Z,99329.12
2018-05-24T10:07:03.552Z,99330.70
2018-05-24T10:09:32.637Z,99329.55
2018-05-24T10:12:01.056Z,99332.80
2018-05-24T10:14:29.458Z,99336.06
2018-05-24T10:16:58.730Z,99325.47
2018-05-24T10:19:27.093Z,99331.61
2018-05-24T10:21:57.198Z,99330.48
2018-05-24T10:24:27.371Z,99331.84
2018-05-24T10:26:56.943Z,99332.01
2018-05-24T10:29:26.606Z,99327.65
2018-05-24T10:31:54.844Z,99329.89
2018-05-24T10:34:23.248Z,99327.73
2018-05-24T10:36:53.461Z,99334.19
2018-05-24T10:39:21.853Z,99328.57
2018-05-24T10:41:51.097Z,99327.84
2018-05-24T10:44:19.527Z,99337.80
2018-05-24T10:46:47.983Z,99332.53
2018-05-24T10:49:16.681Z,99331.09
2018-05-24T10:51:45.801Z,99336.06
2018-05-24T10:54:14.258Z,99330.98
2018-05-24T10:56:42.594Z,99333.27
2018-05-24T10:59:13.614Z,99331.27
2018-05-24T11:01:41.962Z,99332.77
2018-05-24T11:04:11.144Z,99333.35
2018-05-24T11:06:39.481Z,99329.90
2018-05-24T11:09:08.199Z,99329.31
2018-05-24T11:11:37.895Z,99335.09
2018-05-24T11:14:06.359Z,99330.98
2018-05-24T11:16:34.705Z,99335.52
2018-05-24T11:19:03.913Z,99334.50
2018-05-24T11:21:32.275Z,99345.35
2018-05-24T11:24:00.639Z,99343.08
2018-05-24T11:26:29.854Z,99347.75
2018-05-24T11:28:58.221Z,99348.58
2018-05-24T11:31:26.612Z,99347.44
2018-05-24T11:33:55.753Z,99345.33
2018-05-24T11:36:25.119Z,99345.53
2018-05-24T11:38:53.481Z,99341.81
2018-05-24T11:41:22.850Z,99343.13
2018-05-24T11:43:52.017Z,99333.03
2018-05-24T11:46:20.374Z,99337.33
2018-05-24T11:48:49.728Z,99335.25
2018-05-24T11:51:18.386Z,99333.49
2018-05-24T11:53:49.249Z,99330.55
2018-05-24T11:56:18.440Z,99331.48
2018-05-24T11:58:46.918Z,99332.59
2018-05-24T12:01:16.903Z,99322.54
2018-05-24T12:03:45.279Z,99317.16
2018-05-24T12:06:15.183Z,99322.83
2018-05-24T12:08:43.559Z,99317.14
2018-05-24T12:11:13.096Z,99312.42
2018-05-24T12:13:42.723Z,99306.14
2018-05-24T12:16:11.071Z,99305.09
2018-05-24T12:18:39.756Z,99299.25
2018-05-24T12:21:08.111Z,99290.41
2018-05-24T12:23:36.490Z,99291.53
2018-05-24T12:26:05.373Z,99289.58
2018-05-24T12:28:34.361Z,99287.10
2018-05-24T12:31:02.992Z,99283.84
2018-05-24T12:33:31.591Z,99281.52
2018-05-24T12:36:00.229Z,99281.74
2018-05-24T12:38:28.646Z,99276.11
2018-05-24T12:40:57.832Z,99274.09
2018-05-24T12:43:26.950Z,99272.59
2018-05-24T12:45:57.335Z,99267.07
2018-05-24T12:48:26.487Z,99264.83
2018-05-24T12:50:55.503Z,99259.77
2018-05-24T12:53:23.861Z,99255.83
2018-05-24T12:55:52.231Z,99262.23
2018-05-24T12:58:20.838Z,99256.72
2018-05-24T13:00:49.958Z,99261.95
2018-05-24T13:03:18.340Z,99258.00
2018-05-24T13:05:46.712Z,99253.84
2018-05-24T13:08:15.047Z,99255.38
2018-05-24T13:10:43.397Z,99254.56
2018-05-24T13:13:11.764Z,99247.28
2018-05-24T13:15:40.140Z,99247.80
2018-05-24T13:18:08.516Z,99253.07
2018-05-24T13:20:36.905Z,99255.34
2018-05-24T13:23:05.814Z,99255.91
2018-05-24T13:25:34.147Z,99258.26
2018-05-24T13:28:02.510Z,99254.63
2018-05-24T13:30:32.454Z,99255.81
2018-05-24T13:33:01.250Z,99253.15
2018-05-24T13:35:30.637Z,99260.98
2018-05-24T13:37:58.984Z,99260.42
2018-05-24T13:40:27.339Z,99260.58
2018-05-24T13:42:56.943Z,99254.38
2018-05-24T13:45:25.278Z,99250.38
2018-05-24T13:47:53.663Z,99246.56
2018-05-24T13:50:22.889Z,99246.73
2018-05-24T13:52:51.225Z,99245.18
2018-05-24T13:55:20.034Z,99247.82
2018-05-24T13:57:48.406Z,99250.40
2018-05-24T14:00:17.013Z,99252.34
2018-05-24T14:02:45.337Z,99257.13
2018-05-24T14:05:14.901Z,99245.63
2018-05-24T14:07:43.255Z,99250.25
2018-05-24T14:10:11.625Z,99243.19
2018-05-24T14:12:40.708Z,99244.45
2018-05-24T14:15:09.140Z,99241.91
2018-05-24T14:17:37.493Z,99238.83
2018-05-24T14:20:06.798Z,99242.67
2018-05-24T14:22:35.149Z,99239.73
2018-05-24T14:25:03.532Z,99237.20
2018-05-24T14:27:32.997Z,99232.94
2018-05-24T14:30:02.143Z,99231.52
2018-05-24T14:32:30.976Z,99230.66
2018-05-24T14:35:00.714Z,99237.47
2018-05-24T14:37:29.057Z,99230.98
2018-05-24T14:39:57.427Z,99226.41
2018-05-24T14:42:25.778Z,99227.60
2018-05-24T14:44:54.197Z,99227.28
2018-05-24T14:47:23.311Z,99236.61
2018-05-24T14:49:51.902Z,99240.08
2018-05-24T14:52:20.664Z,99244.69
2018-05-24T14:54:52.059Z,99239.49
2018-05-24T14:57:20.985Z,99239.23
2018-05-24T14:59:49.656Z,99244.14
2018-05-24T15:02:17.994Z,99237.05
2018-05-24T15:04:46.361Z,99229.16
2018-05-24T15:07:15.123Z,99236.25
2018-05-24T15:09:43.545Z,99239.66
2018-05-24T15:12:12.385Z,99240.77
2018-05-24T15:14:41.195Z,99233.72
2018-05-24T15:17:09.533Z,99232.54
2018-05-24T15:19:37.916Z,99238.97
2018-05-24T15:22:06.268Z,99237.49
2018-05-24T15:24:35.862Z,99238.15
2018-05-24T15:27:06.027Z,99236.59
2018-05-24T15:29:35.257Z,99235.25
2018-05-24T15:32:04.622Z,99229.53
2018-05-24T15:34:33.692Z,99225.49
2018-05-24T15:37:02.438Z,99218.86
2018-05-24T15:39:31.486Z,99217.34
2018-05-24T15:41:59.830Z,99219.70
2018-05-24T15:44:28.941Z,99216.67
2018-05-24T15:46:57.520Z,99211.84
2018-05-24T15:49:26.476Z,99219.24
2018-05-24T15:51:54.924Z,99220.25
2018-05-24T15:54:24.257Z,99214.53
2018-05-24T15:56:52.667Z,99213.19
2018-05-24T15:59:21.074Z,99206.03
2018-05-24T16:01:49.406Z,99208.36
2018-05-24T16:04:19.364Z,99203.31
2018-05-24T16:06:47.712Z,99198.31
2018-05-24T16:09:18.952Z,99197.38
2018-05-24T16:11:47.621Z,99199.98
2018-05-24T16:14:15.979Z,99196.29
2018-05-24T16:16:44.352Z,99191.14
2018-05-24T16:19:12.714Z,99191.94
2018-05-24T16:21:42.144Z,99189.69
2018-05-24T16:24:11.453Z,99185.22
2018-05-24T16:26:40.117Z,99185.10
2018-05-24T16:29:09.182Z,99177.91
2018-05-24T16:31:37.583Z,99179.03
2018-05-24T16:34:05.999Z,99174.06
2018-05-24T16:36:35.133Z,99163.66
2018-05-24T16:39:03.529Z,99164.88
2018-05-24T16:41:32.813Z,99171.88
2018-05-24T16:44:01.419Z,99168.28
2018-05-24T16:46:30.646Z,99163.63
2018-05-24T16:48:59.015Z,99174.56
2018-05-24T16:51:27.988Z,99177.73
2018-05-24T16:53:56.592Z,99181.52
2018-05-24T16:56:24.993Z,99180.56
2018-05-24T16:58:53.769Z,99187.95
2018-05-24T17:01:22.159Z,99190.10
2018-05-24T17:03:50.541Z,99183.88
2018-05-24T17:06:19.220Z,99184.09
2018-05-24T17:08:47.594Z,99186.95
2018-05-24T17:11:15.981Z,99182.88
2018-05-24T17:13:45.134Z,99185.17
2018-05-24T17:16:13.493Z,99181.94
2018-05-24T17:18:41.955Z,99178.28
2018-05-24T17:21:11.089Z,99176.16
2018-05-24T17:23:41.078Z,99179.17
2018-05-24T17:26:10.348Z,99173.61
2018-05-24T17:28:38.814Z,99177.58
2018-05-24T17:31:07.865Z,99175.15
2018-05-24T17:33:37.293Z,99174.21
2018-05-24T17:36:05.709Z,99182.65
2018-05-24T17:38:34.842Z,99188.86
2018-05-24T17:41:03.211Z,99194.42
2018-05-24T17:43:31.603Z,99193.67
2018-05-24T17:46:00.747Z,99190.55
2018-05-24T17:48:29.107Z,99190.76
2018-05-24T17:50:58.283Z,99191.50
2018-05-24T17:53:28.124Z,99189.52
2018-05-24T17:55:56.925Z,99188.00
2018-05-24T17:58:25.611Z,99196.48
2018-05-24T18:00:54.712Z,99199.47
2018-05-24T18:03:23.105Z,99194.03
2018-05-24T18:05:51.404Z,99193.05
2018-05-24T18:08:19.759Z,99203.20
2018-05-24T18:10:48.165Z,99201.92
2018-05-24T18:13:17.123Z,99207.11
2018-05-24T18:15:45.793Z,99199.03
2018-05-24T18:18:14.139Z,99200.47
2018-05-24T18:20:42.510Z,99197.47
2018-05-24T18:23:11.791Z,99202.39
2018-05-24T18:25:40.170Z,99203.98
2018-05-24T18:28:09.406Z,99201.08
2018-05-24T18:30:37.772Z,99196.19
2018-05-24T18:33:06.125Z,99198.16
2018-05-24T18:35:35.125Z,99195.30
2018-05-24T18:38:04.837Z,99199.46
2018-05-24T18:40:33.857Z,99196.85
2018-05-24T18:43:02.679Z,99191.45
2018-05-24T18:45:31.058Z,99200.94
2018-05-24T18:47:59.453Z,99190.34
2018-05-24T18:50:28.041Z,99191.53
2018-05-24T18:52:56.390Z,99199.03
2018-05-24T18:55:24.994Z,99200.55
2018-05-24T18:57:53.577Z,99202.79
2018-05-24T19:00:22.650Z,99201.78
2018-05-24T19:02:51.419Z,99211.30
2018-05-24T19:05:19.838Z,99206.34
2018-05-24T19:07:48.492Z,99208.59
2018-05-24T19:10:18.329Z,99211.09
2018-05-24T19:12:46.723Z,99214.94
2018-05-24T19:15:15.670Z,99219.52
2018-05-24T19:17:44.062Z,99224.13
2018-05-24T19:20:13.361Z,99221.42
2018-05-24T19:22:43.100Z,99219.19
2018-05-24T19:25:11.863Z,99222.16
2018-05-24T19:27:40.765Z,99216.62
2018-05-24T19:30:09.173Z,99230.29
2018-05-24T19:32:38.382Z,99234.24
2018-05-24T19:35:07.289Z,99240.77
2018-05-24T19:37:36.320Z,99239.76
2018-05-24T19:40:04.928Z,99241.76
2018-05-24T19:42:33.310Z,99242.34
2018-05-24T19:45:01.687Z,99244.62
2018-05-24T19:47:30.030Z,99241.75
2018-05-24T19:49:59.893Z,99242.88
2018-05-24T19:52:28.600Z,99246.47
2018-05-24T19:54:57.005Z,99243.68
2018-05-24T19:57:25.718Z,99241.69
2018-05-24T19:59:54.424Z,99250.89
2018-05-24T20:02:22.766Z,99249.89
2018-05-24T20:04:51.152Z,99250.58
2018-05-24T20:07:20.448Z,99253.69
2018-05-24T20:09:48.848Z,99255.06
2018-05-24T20:12:17.232Z,99251.55
2018-05-24T20:14:45.601Z,99257.30
2018-05-24T20:17:14.020Z,99260.11
2018-05-24T20:19:43.290Z,99260.14
2018-05-24T20:22:11.698Z,99257.34
2018-05-24T20:24:40.418Z,99250.95
2018-05-24T20:27:09.100Z,99252.41
2018-05-24T20:29:37.503Z,99256.00
2018-05-24T20:32:06.471Z,99248.49
2018-05-24T20:34:34.959Z,99248.91
2018-05-24T20:37:03.357Z,99250.52
2018-05-24T20:39:32.637Z,99254.08
2018-05-24T20:42:01.930Z,99248.72
2018-05-24T20:44:30.462Z,99249.39
2018-05-24T20:46:58.818Z,99248.25
2018-05-24T20:49:27.858Z,99253.36
2018-05-24T20:51:56.672Z,99255.83
2018-05-24T20:54:25.002Z,99252.89
2018-05-24T20:56:53.379Z,99261.20
2018-05-24T20:59:22.616Z,99253.87
2018-05-24T21:01:51.371Z,99257.55
2018-05-24T21:04:20.109Z,99257.53
2018-05-24T21:06:48.542Z,99255.05
2018-05-24T21:09:18.221Z,99256.20
2018-05-24T21:11:47.215Z,99260.84
2018-05-24T21:14:15.881Z,99254.53
2018-05-24T21:16:44.582Z,99256.61
2018-05-24T21:19:12.928Z,99257.62
2018-05-24T21:21:42.279Z,99261.09
2018-05-24T21:24:10.641Z,99253.48
2018-05-24T21:26:39.822Z,99253.66
2018-05-24T21:29:08.217Z,99252.27
2018-05-24T21:31:36.588Z,99255.16
2018-05-24T21:34:05.662Z,99254.02
2018-05-24T21:36:34.121Z,99254.02
2018-05-24T21:39:02.465Z,99249.75
2018-05-24T21:41:31.098Z,99251.00
2018-05-24T21:44:00.357Z,99241.97
2018-05-24T21:46:28.747Z,99252.14
2018-05-24T21:48:57.384Z,99247.19
2018-05-24T21:51:25.752Z,99250.45
2018-05-24T21:53:54.144Z,99255.37
2018-05-24T21:56:24.005Z,99260.88
2018-05-24T21:58:52.351Z,99259.19
2018-05-24T22:01:20.757Z,99258.84
2018-05-24T22:03:49.104Z,99256.45
2018-05-24T22:06:18.424Z,99254.94
2018-05-24T22:08:47.032Z,99248.73
2018-05-24T22:11:15.392Z,99249.25
2018-05-24T22:13:43.733Z,99246.98
2018-05-24T22:16:12.351Z,99248.69
2018-05-24T22:18:41.516Z,99246.06
2018-05-24T22:21:09.906Z,99242.26
2018-05-24T22:23:38.237Z,99247.13
2018-05-24T22:26:06.844Z,99246.91
2018-05-24T22:28:35.235Z,99254.42
2018-05-24T22:31:03.713Z,99256.53
2018-05-24T22:33:33.330Z,99257.50
2018-05-24T22:36:02.098Z,99260.47
2018-05-24T22:38:31.347Z,99258.12
2018-05-24T22:40:59.721Z,99257.58
2018-05-24T22:43:28.290Z,99260.41
2018-05-24T22:45:57.438Z,99257.47
2018-05-24T22:48:27.482Z,99247.78
2018-05-24T22:50:56.252Z,99252.71
2018-05-24T22:53:25.235Z,99251.17
2018-05-24T22:55:53.905Z,99256.66
2018-05-24T22:58:22.370Z,99250.29
2018-05-24T23:00:51.103Z,99253.08
2018-05-24T23:03:21.823Z,99254.80
2018-05-24T23:05:50.518Z,99249.57
2018-05-24T23:08:18.856Z,99248.72
2018-05-24T23:10:48.089Z,99261.83
2018-05-24T23:13:17.528Z,99254.44
2018-05-24T23:15:45.886Z,99255.42
2018-05-24T23:18:14.903Z,99254.80
2018-05-24T23:20:43.279Z,99258.98
2018-05-24T23:23:12.401Z,99261.48
2018-05-24T23:25:40.790Z,99257.52
2018-05-24T23:28:10.032Z,99254.39
2018-05-24T23:30:38.405Z,99248.68
2018-05-24T23:33:06.797Z,99252.38
2018-05-24T23:35:36.032Z,99249.55
2018-05-24T23:38:04.376Z,99250.89
2018-05-24T23:40:33.595Z,99259.55
2018-05-24T23:43:02.755Z,99261.03
2018-05-24T23:45:31.556Z,99263.92
2018-05-24T23:47:59.968Z,99260.33
2018-05-24T23:50:28.783Z,99256.81
2018-05-24T23:52:57.380Z,99259.32
2018-05-24T23:55:25.777Z,99264.56
2018-05-24T23:57:54.131Z,99265.06
